createdAt,value
2018-12-08T00:00:45.588Z,1.87
2018-12-08T00:03:11.876Z,1.67
2018-12-08T00:05:38.791Z,2.20
2018-12-08T00:08:05.033Z,2.00
2018-12-08T00:10:31.291Z,1.53
2018-12-08T00:12:58.297Z,2.50
2018-12-08T00:15:24.604Z,1.77
2018-12-08T00:17:50.848Z,1.80
2018-12-08T00:20:17.106Z,1.50
2018-12-08T00:22:43.383Z,1.83
2018-12-08T00:25:09.656Z,1.70
2018-12-08T00:27:35.909Z,1.90
2018-12-08T00:30:02.745Z,1.90
2018-12-08T00:32:29.715Z,1.57
2018-12-08T00:34:55.939Z,1.67
2018-12-08T00:37:22.188Z,1.80
2018-12-08T00:39:48.452Z,1.77
2018-12-08T00:42:14.823Z,1.73
2018-12-08T00:44:41.053Z,2.03
2018-12-08T00:47:07.284Z,1.90
2018-12-08T00:49:33.522Z,2.37
2018-12-08T00:51:59.812Z,1.90
2018-12-08T00:54:26.780Z,1.70
2018-12-08T00:56:53.016Z,1.90
2018-12-08T00:59:19.229Z,2.13
2018-12-08T01:01:45.467Z,1.60
2018-12-08T01:04:11.718Z,1.80
2018-12-08T01:06:37.953Z,1.57
2018-12-08T01:09:04.241Z,1.70
2018-12-08T01:11:30.489Z,1.93
2018-12-08T01:13:56.743Z,1.70
2018-12-08T01:16:22.998Z,1.90
2018-12-08T01:18:49.982Z,1.50
2018-12-08T01:21:16.956Z,2.07
2018-12-08T01:23:43.294Z,1.67
2018-12-08T01:26:09.540Z,2.30
2018-12-08T01:28:35.790Z,2.00
2018-12-08T01:31:02.149Z,1.80
2018-12-08T01:33:28.414Z,1.73
2018-12-08T01:35:55.399Z,1.40
2018-12-08T01:38:22.396Z,2.03
2018-12-08T01:40:48.861Z,1.73
2018-12-08T01:43:15.819Z,2.00
2018-12-08T01:45:42.057Z,1.77
2018-12-08T01:48:08.325Z,2.03
2018-12-08T01:50:34.558Z,1.93
2018-12-08T01:53:00.814Z,1.80
2018-12-08T01:55:27.792Z,2.40
2018-12-08T01:57:54.021Z,1.70
2018-12-08T02:00:20.275Z,2.10
2018-12-08T02:02:46.512Z,2.23
2018-12-08T02:05:12.771Z,2.07
2018-12-08T02:07:39.740Z,1.90
2018-12-08T02:10:05.985Z,2.00
2018-12-08T02:12:32.244Z,1.80
2018-12-08T02:14:58.486Z,2.03
2018-12-08T02:17:25.499Z,1.80
2018-12-08T02:19:51.763Z,1.97
2018-12-08T02:22:18.085Z,2.10
2018-12-08T02:24:44.309Z,1.90
2018-12-08T02:27:10.621Z,2.10
2018-12-08T02:29:37.188Z,1.90
2018-12-08T02:32:03.467Z,1.93
2018-12-08T02:34:29.689Z,1.70
2018-12-08T02:36:56.216Z,2.00
2018-12-08T02:39:22.449Z,2.20
2018-12-08T02:41:48.725Z,1.70
2018-12-08T02:44:15.165Z,2.00
2018-12-08T02:46:42.129Z,1.87
2018-12-08T02:49:09.088Z,1.77
2018-12-08T02:51:35.406Z,1.90
2018-12-08T02:54:02.428Z,1.80
2018-12-08T02:56:29.404Z,1.87
2018-12-08T02:58:55.695Z,1.97
2018-12-08T03:01:21.917Z,1.70
2018-12-08T03:03:48.150Z,2.00
2018-12-08T03:06:16.349Z,1.70
2018-12-08T03:08:42.579Z,2.10
2018-12-08T03:11:08.812Z,1.70
2018-12-08T03:13:35.039Z,1.80
2018-12-08T03:16:01.259Z,1.83
2018-12-08T03:18:27.533Z,2.00
2018-12-08T03:20:53.747Z,1.60
2018-12-08T03:23:19.976Z,2.40
2018-12-08T03:25:46.264Z,1.67
2018-12-08T03:28:12.530Z,1.60
2018-12-08T03:30:38.779Z,1.73
2018-12-08T03:33:05.024Z,1.70
2018-12-08T03:35:32.028Z,1.70
2018-12-08T03:37:58.269Z,1.50
2018-12-08T03:40:24.497Z,1.40
2018-12-08T03:42:50.793Z,1.57
2018-12-08T03:45:17.036Z,1.63
2018-12-08T03:47:43.243Z,1.53
2018-12-08T03:50:09.539Z,1.70
2018-12-08T03:52:35.752Z,1.60
2018-12-08T03:55:02.020Z,1.10
2018-12-08T03:57:28.265Z,1.40
2018-12-08T03:59:54.529Z,1.30
2018-12-08T04:02:20.804Z,1.30
2018-12-08T04:04:47.055Z,1.40
2018-12-08T04:07:13.335Z,0.90
2018-12-08T04:09:40.336Z,1.17
2018-12-08T04:12:06.613Z,1.03
2018-12-08T04:14:33.693Z,1.20
2018-12-08T04:17:00.037Z,1.33
2018-12-08T04:19:26.317Z,1.53
2018-12-08T04:21:53.379Z,1.20
2018-12-08T04:24:19.660Z,1.03
2018-12-08T04:26:45.900Z,0.90
2018-12-08T04:29:12.129Z,1.00
2018-12-08T04:31:38.384Z,1.30
2018-12-08T04:34:04.632Z,1.30
2018-12-08T04:36:30.911Z,1.20
2018-12-08T04:38:57.168Z,1.20
2018-12-08T04:41:24.179Z,1.37
2018-12-08T04:43:50.419Z,1.30
2018-12-08T04:46:16.648Z,1.30
2018-12-08T04:48:42.917Z,1.20
2018-12-08T04:51:09.980Z,1.50
2018-12-08T04:53:36.216Z,1.20
2018-12-08T04:56:03.216Z,1.20
2018-12-08T04:58:29.477Z,1.40
2018-12-08T05:00:55.703Z,1.40
2018-12-08T05:03:22.705Z,1.47
2018-12-08T05:05:48.964Z,1.43
2018-12-08T05:08:15.196Z,1.80
2018-12-08T05:10:42.218Z,1.17
2018-12-08T05:13:08.447Z,1.33
2018-12-08T05:15:34.719Z,1.40
2018-12-08T05:18:01.056Z,1.43
2018-12-08T05:20:27.315Z,1.30
2018-12-08T05:22:53.557Z,1.27
2018-12-08T05:25:19.806Z,1.50
2018-12-08T05:27:46.859Z,1.50
2018-12-08T05:30:13.887Z,1.30
2018-12-08T05:32:40.893Z,1.30
2018-12-08T05:35:07.152Z,1.30
2018-12-08T05:37:34.179Z,2.10
2018-12-08T05:40:00.541Z,2.20
2018-12-08T05:42:27.532Z,1.40
2018-12-08T05:44:53.809Z,1.30
2018-12-08T05:47:20.821Z,1.40
2018-12-08T05:49:47.089Z,1.40
2018-12-08T05:52:14.093Z,1.67
2018-12-08T05:54:40.365Z,1.20
2018-12-08T05:57:07.358Z,1.67
2018-12-08T05:59:33.681Z,1.80
2018-12-08T06:01:59.935Z,1.53
2018-12-08T06:04:26.201Z,1.60
2018-12-08T06:06:53.164Z,1.30
2018-12-08T06:09:19.468Z,1.50
2018-12-08T06:11:46.473Z,1.30
2018-12-08T06:14:12.709Z,1.40
2018-12-08T06:16:38.974Z,1.47
2018-12-08T06:19:05.968Z,1.37
2018-12-08T06:21:33.211Z,1.20
2018-12-08T06:23:59.464Z,1.60
2018-12-08T06:26:25.751Z,1.67
2018-12-08T06:28:52.044Z,1.83
2018-12-08T06:31:19.104Z,1.23
2018-12-08T06:33:45.335Z,1.47
2018-12-08T06:36:11.632Z,1.37
2018-12-08T06:38:37.848Z,1.53
2018-12-08T06:41:04.120Z,1.50
2018-12-08T06:43:31.120Z,2.33
2018-12-08T06:45:58.340Z,1.77
2018-12-08T06:48:24.597Z,1.40
2018-12-08T06:50:50.909Z,1.27
2018-12-08T06:53:17.248Z,1.40
2018-12-08T06:55:43.503Z,1.43
2018-12-08T06:58:10.502Z,1.60
2018-12-08T07:00:36.786Z,1.80
2018-12-08T07:03:03.824Z,1.53
2018-12-08T07:05:30.093Z,1.80
2018-12-08T07:07:56.401Z,1.50
2018-12-08T07:10:22.695Z,1.40
2018-12-08T07:12:49.034Z,1.50
2018-12-08T07:15:15.300Z,1.47
2018-12-08T07:17:41.580Z,1.30
2018-12-08T07:20:07.837Z,1.50
2018-12-08T07:22:34.142Z,1.20
2018-12-08T07:25:00.426Z,2.03
2018-12-08T07:27:27.376Z,1.80
2018-12-08T07:29:53.690Z,1.40
2018-12-08T07:32:19.953Z,1.93
2018-12-08T07:34:46.280Z,1.27
2018-12-08T07:37:12.589Z,1.60
2018-12-08T07:39:38.815Z,1.60
2018-12-08T07:42:05.097Z,1.73
2018-12-08T07:44:31.351Z,1.37
2018-12-08T07:46:58.328Z,1.87
2018-12-08T07:49:24.613Z,1.70
2018-12-08T07:51:50.872Z,1.63
2018-12-08T07:54:17.989Z,1.57
2018-12-08T07:56:44.257Z,2.03
2018-12-08T07:59:10.540Z,1.93
2018-12-08T08:01:36.809Z,1.97
2018-12-08T08:04:03.107Z,1.77
2018-12-08T08:06:30.107Z,1.37
2018-12-08T08:08:56.402Z,2.03
2018-12-08T08:11:22.725Z,1.90
2018-12-08T08:13:48.965Z,1.80
2018-12-08T08:16:15.205Z,1.83
2018-12-08T08:18:41.498Z,1.60
2018-12-08T08:21:07.798Z,1.87
2018-12-08T08:23:34.044Z,1.60
2018-12-08T08:26:01.088Z,1.53
2018-12-08T08:28:27.496Z,1.57
2018-12-08T08:30:53.884Z,1.50
2018-12-08T08:33:20.126Z,1.93
2018-12-08T08:35:46.429Z,2.23
2018-12-08T08:38:13.460Z,1.73
2018-12-08T08:40:39.792Z,1.33
2018-12-08T08:43:06.840Z,1.87
2018-12-08T08:45:33.197Z,1.80
2018-12-08T08:47:59.732Z,1.77
2018-12-08T08:50:25.997Z,1.53
2018-12-08T08:52:53.056Z,1.70
2018-12-08T08:55:21.141Z,1.60
2018-12-08T08:57:47.436Z,1.80
2018-12-08T09:00:13.765Z,1.77
2018-12-08T09:02:40.007Z,1.77
2018-12-08T09:05:06.351Z,1.77
2018-12-08T09:07:33.385Z,1.90
2018-12-08T09:10:00.451Z,1.57
2018-12-08T09:12:27.529Z,1.70
2018-12-08T09:14:54.193Z,1.60
2018-12-08T09:17:20.469Z,1.63
2018-12-08T09:19:47.491Z,1.40
2018-12-08T09:22:14.502Z,2.00
2018-12-08T09:24:41.508Z,1.87
2018-12-08T09:27:07.805Z,2.20
2018-12-08T09:29:34.384Z,1.80
2018-12-08T09:32:00.685Z,1.57
2018-12-08T09:34:26.929Z,2.10
2018-12-08T09:36:54.050Z,1.80
2018-12-08T09:39:20.320Z,1.70
2018-12-08T09:41:46.565Z,1.90
2018-12-08T09:44:12.845Z,1.77
2018-12-08T09:46:39.133Z,1.87
2018-12-08T09:49:05.420Z,1.83
2018-12-08T09:51:31.643Z,2.10
2018-12-08T09:53:57.901Z,1.80
2018-12-08T09:56:24.275Z,2.17
2018-12-08T09:58:50.565Z,2.23
2018-12-08T10:01:16.967Z,1.80
2018-12-08T10:03:44.045Z,2.30
2018-12-08T10:06:10.328Z,1.73
2018-12-08T10:08:36.585Z,2.47
2018-12-08T10:11:02.872Z,1.80
2018-12-08T10:13:29.206Z,2.17
2018-12-08T10:15:55.499Z,1.73
2018-12-08T10:18:21.872Z,1.63
2018-12-08T10:20:48.160Z,2.00
2018-12-08T10:23:14.486Z,1.80
2018-12-08T10:25:40.780Z,2.13
2018-12-08T10:28:07.060Z,1.90
2018-12-08T10:30:33.331Z,2.10
2018-12-08T10:33:00.383Z,1.97
2018-12-08T10:35:27.397Z,1.90
2018-12-08T10:37:53.620Z,2.00
2018-12-08T10:40:19.889Z,2.47
2018-12-08T10:42:46.928Z,2.23
2018-12-08T10:45:13.897Z,1.83
2018-12-08T10:47:40.132Z,2.23
2018-12-08T10:50:06.471Z,2.20
2018-12-08T10:52:32.734Z,1.93
2018-12-08T10:54:59.068Z,2.20
2018-12-08T10:57:26.089Z,2.47
2018-12-08T10:59:52.429Z,1.80
2018-12-08T11:02:24.673Z,1.83
2018-12-08T11:04:50.971Z,2.30
2018-12-08T11:07:17.994Z,2.50
2018-12-08T11:09:45.032Z,2.67
2018-12-08T11:12:12.138Z,2.37
2018-12-08T11:14:39.104Z,2.83
2018-12-08T11:17:05.363Z,1.97
2018-12-08T11:19:31.678Z,2.53
2018-12-08T11:21:57.971Z,1.93
2018-12-08T11:24:24.246Z,2.30
2018-12-08T11:26:52.240Z,2.67
2018-12-08T11:29:18.553Z,2.27
2018-12-08T11:31:44.935Z,2.37
2018-12-08T11:34:11.177Z,1.90
2018-12-08T11:36:37.479Z,2.27
2018-12-08T11:39:03.784Z,2.07
2018-12-08T11:41:30.079Z,2.63
2018-12-08T11:43:56.360Z,2.27
2018-12-08T11:46:22.634Z,2.37
2018-12-08T11:48:48.872Z,2.30
2018-12-08T11:51:15.139Z,2.03
2018-12-08T11:53:41.425Z,2.20
2018-12-08T11:56:07.711Z,2.53
2018-12-08T11:58:34.018Z,2.00
2018-12-08T12:01:00.377Z,2.20
2018-12-08T12:03:28.217Z,2.67
2018-12-08T12:05:54.561Z,2.23
2018-12-08T12:08:20.937Z,1.90
2018-12-08T12:10:47.498Z,2.80
2018-12-08T12:13:13.848Z,2.10
2018-12-08T12:15:40.235Z,2.20
2018-12-08T12:18:06.539Z,1.87
2018-12-08T12:20:32.875Z,2.13
2018-12-08T12:22:59.337Z,2.10
2018-12-08T12:25:25.669Z,2.30
2018-12-08T12:27:52.749Z,2.30
2018-12-08T12:30:19.117Z,1.90
2018-12-08T12:32:45.413Z,2.83
2018-12-08T12:35:11.679Z,1.90
2018-12-08T12:37:38.756Z,2.13
2018-12-08T12:40:05.103Z,2.83
2018-12-08T12:42:31.557Z,2.00
2018-12-08T12:44:57.993Z,1.93
2018-12-08T12:47:25.269Z,1.93
2018-12-08T12:49:52.327Z,2.13
2018-12-08T12:52:20.017Z,1.80
2018-12-08T12:54:46.347Z,1.90
2018-12-08T12:57:12.625Z,1.87
2018-12-08T12:59:40.211Z,1.70
2018-12-08T13:02:07.200Z,1.70
2018-12-08T13:04:33.456Z,1.80
2018-12-08T13:07:00.516Z,1.70
2018-12-08T13:09:26.776Z,1.87
2018-12-08T13:11:53.085Z,2.03
2018-12-08T13:14:20.144Z,1.70
2018-12-08T13:16:47.248Z,1.87
2018-12-08T13:19:13.579Z,1.40
2018-12-08T13:21:39.864Z,1.47
2018-12-08T13:24:07.135Z,1.57
2018-12-08T13:26:33.418Z,1.37
2018-12-08T13:28:59.915Z,1.90
2018-12-08T13:31:26.553Z,1.60
2018-12-08T13:33:53.678Z,1.40
2018-12-08T13:36:20.042Z,1.70
2018-12-08T13:38:46.354Z,1.23
2018-12-08T13:41:12.713Z,1.70
2018-12-08T13:43:39.599Z,1.87
2018-12-08T13:46:05.917Z,1.77
2018-12-08T13:48:32.251Z,1.50
2018-12-08T13:50:58.658Z,1.80
2018-12-08T13:53:24.953Z,1.80
2018-12-08T13:55:51.537Z,2.40
2018-12-08T13:58:17.961Z,1.20
2018-12-08T14:00:45.005Z,1.90
2018-12-08T14:03:12.011Z,1.63
2018-12-08T14:05:38.282Z,1.97
2018-12-08T14:08:04.664Z,1.43
2018-12-08T14:10:31.004Z,1.90
2018-12-08T14:12:57.509Z,2.00
2018-12-08T14:15:24.825Z,1.80
2018-12-08T14:17:51.906Z,1.53
2018-12-08T14:20:19.067Z,1.73
2018-12-08T14:22:45.325Z,2.17
2018-12-08T14:25:11.893Z,1.47
2018-12-08T14:27:38.957Z,1.57
2018-12-08T14:30:05.385Z,1.70
2018-12-08T14:32:32.426Z,1.57
2018-12-08T14:34:59.432Z,1.80
2018-12-08T14:37:25.747Z,1.77
2018-12-08T14:39:52.105Z,1.67
2018-12-08T14:42:19.178Z,1.80
2018-12-08T14:44:46.184Z,1.40
2018-12-08T14:47:12.460Z,1.73
2018-12-08T14:49:40.297Z,1.73
2018-12-08T14:52:07.433Z,2.30
2018-12-08T14:54:33.763Z,1.77
2018-12-08T14:57:00.032Z,1.63
2018-12-08T14:59:26.317Z,1.60
2018-12-08T15:01:52.607Z,1.63
2018-12-08T15:04:19.007Z,1.50
2018-12-08T15:06:45.335Z,1.70
2018-12-08T15:09:12.342Z,1.60
2018-12-08T15:11:44.757Z,1.67
2018-12-08T15:14:17.184Z,3.50
2018-12-08T15:16:44.525Z,1.40
2018-12-08T15:19:10.677Z,2.37
2018-12-08T15:21:36.996Z,2.53
2018-12-08T15:24:03.477Z,2.67
2018-12-08T15:26:29.846Z,2.70
2018-12-08T15:28:56.193Z,4.20
2018-12-08T15:31:22.465Z,3.10
2018-12-08T15:33:49.505Z,3.70
2018-12-08T15:36:16.540Z,4.00
2018-12-08T15:38:42.834Z,9.33
2018-12-08T15:41:09.140Z,2.87
2018-12-08T15:43:35.395Z,3.70
2018-12-08T15:46:01.692Z,2.17
2018-12-08T15:48:27.983Z,4.00
2018-12-08T15:50:54.285Z,3.70
2018-12-08T15:53:20.591Z,8.83
2018-12-08T15:55:46.869Z,4.73
2018-12-08T15:58:13.927Z,2.73
2018-12-08T16:00:41.027Z,2.23
2018-12-08T16:03:07.308Z,1.60
2018-12-08T16:05:34.399Z,1.30
2018-12-08T16:08:00.656Z,2.30
2018-12-08T16:10:27.042Z,1.60
2018-12-08T16:12:53.442Z,1.67
2018-12-08T16:15:19.784Z,1.67
2018-12-08T16:17:46.097Z,1.77
2018-12-08T16:20:12.471Z,1.77
2018-12-08T16:22:38.845Z,1.60
2018-12-08T16:25:05.145Z,1.73
2018-12-08T16:27:31.440Z,1.37
2018-12-08T16:29:57.937Z,2.50
2018-12-08T16:32:24.239Z,1.30
2018-12-08T16:34:50.513Z,1.57
2018-12-08T16:37:16.780Z,1.50
2018-12-08T16:39:43.061Z,1.80
2018-12-08T16:42:10.076Z,1.30
2018-12-08T16:44:36.371Z,1.40
2018-12-08T16:47:02.700Z,1.30
2018-12-08T16:49:28.972Z,1.40
2018-12-08T16:51:55.997Z,1.70
2018-12-08T16:54:22.372Z,1.67
2018-12-08T16:56:48.710Z,2.00
2018-12-08T16:59:15.703Z,1.37
2018-12-08T17:01:42.108Z,1.90
2018-12-08T17:04:08.393Z,1.73
2018-12-08T17:06:34.676Z,2.17
2018-12-08T17:09:00.965Z,1.80
2018-12-08T17:11:27.466Z,1.40
2018-12-08T17:13:54.518Z,1.77
2018-12-08T17:16:20.769Z,1.70
2018-12-08T17:18:47.797Z,2.00
2018-12-08T17:21:14.215Z,2.57
2018-12-08T17:23:40.499Z,1.63
2018-12-08T17:26:06.806Z,1.50
2018-12-08T17:28:33.859Z,1.73
2018-12-08T17:31:07.060Z,1.73
2018-12-08T17:33:39.680Z,1.90
2018-12-08T17:36:06.046Z,1.80
2018-12-08T17:38:33.079Z,1.80
2018-12-08T17:40:59.476Z,1.60
2018-12-08T17:43:27.528Z,1.60
2018-12-08T17:45:53.847Z,1.90
2018-12-08T17:48:20.963Z,2.03
2018-12-08T17:50:47.293Z,1.63
2018-12-08T17:53:13.650Z,1.67
2018-12-08T17:55:39.980Z,1.73
2018-12-08T17:58:06.266Z,1.80
2018-12-08T18:00:32.584Z,1.53
2018-12-08T18:02:59.072Z,1.50
2018-12-08T18:05:26.400Z,1.43
2018-12-08T18:07:52.665Z,1.53
2018-12-08T18:10:18.976Z,1.47
2018-12-08T18:12:46.011Z,1.97
2018-12-08T18:15:13.632Z,1.40
2018-12-08T18:17:39.930Z,1.60
2018-12-08T18:20:07.106Z,1.40
2018-12-08T18:22:33.540Z,1.50
2018-12-08T18:24:59.721Z,1.40
2018-12-08T18:27:26.095Z,1.53
2018-12-08T18:29:52.403Z,1.30
2018-12-08T18:32:18.735Z,1.50
2018-12-08T18:34:45.049Z,1.23
2018-12-08T18:37:11.316Z,1.30
2018-12-08T18:39:37.604Z,1.50
2018-12-08T18:42:03.884Z,1.50
2018-12-08T18:44:30.492Z,1.47
2018-12-08T18:46:56.759Z,1.50
2018-12-08T18:49:23.091Z,1.07
2018-12-08T18:51:50.173Z,1.20
2018-12-08T18:54:16.492Z,1.27
2018-12-08T18:56:43.528Z,1.17
2018-12-08T18:59:10.469Z,1.63
2018-12-08T19:01:37.548Z,1.20
2018-12-08T19:04:03.878Z,1.50
2018-12-08T19:06:30.872Z,1.47
2018-12-08T19:08:57.179Z,1.20
2018-12-08T19:11:24.456Z,0.90
2018-12-08T19:13:52.270Z,1.50
2018-12-08T19:16:18.663Z,1.20
2018-12-08T19:18:44.972Z,1.17
2018-12-08T19:21:12.067Z,1.43
2018-12-08T19:23:43.706Z,1.10
2018-12-08T19:26:05.583Z,1.40
2018-12-08T19:28:31.875Z,1.03
2018-12-08T19:30:58.342Z,1.13
2018-12-08T19:33:24.647Z,1.00
2018-12-08T19:35:50.992Z,1.10
2018-12-08T19:38:17.942Z,1.20
2018-12-08T19:40:44.310Z,0.90
2018-12-08T19:43:10.657Z,1.00
2018-12-08T19:45:37.799Z,1.23
2018-12-08T19:48:04.226Z,1.30
2018-12-08T19:50:30.892Z,0.90
2018-12-08T19:52:57.226Z,0.50
2018-12-08T19:55:25.175Z,1.00
2018-12-08T19:57:51.522Z,1.00
2018-12-08T20:00:17.941Z,1.03
2018-12-08T20:02:44.315Z,0.93
2018-12-08T20:05:10.688Z,1.00
2018-12-08T20:07:37.037Z,1.10
2018-12-08T20:10:03.389Z,1.03
2018-12-08T20:12:29.759Z,1.00
2018-12-08T20:14:56.205Z,0.97
2018-12-08T20:17:22.714Z,0.80
2018-12-08T20:19:49.027Z,0.80
2018-12-08T20:22:16.122Z,0.80
2018-12-08T20:24:42.414Z,0.90
2018-12-08T20:27:08.998Z,0.73
2018-12-08T20:29:35.432Z,0.90
2018-12-08T20:32:02.511Z,0.90
2018-12-08T20:34:29.985Z,0.67
2018-12-08T20:36:56.373Z,0.80
2018-12-08T20:39:22.778Z,0.80
2018-12-08T20:41:49.118Z,0.63
2018-12-08T20:44:16.168Z,1.00
2018-12-08T20:46:42.498Z,0.70
2018-12-08T20:49:08.822Z,0.97
2018-12-08T20:51:35.098Z,0.77
2018-12-08T20:54:01.352Z,0.80
2018-12-08T20:56:27.660Z,0.90
2018-12-08T20:58:54.921Z,0.60
2018-12-08T21:01:21.292Z,0.60
2018-12-08T21:03:47.619Z,0.60
2018-12-08T21:06:13.905Z,0.80
2018-12-08T21:08:40.242Z,0.60
2018-12-08T21:11:06.765Z,0.70
2018-12-08T21:13:33.151Z,0.70
2018-12-08T21:16:00.132Z,0.80
2018-12-08T21:18:26.571Z,0.60
2018-12-08T21:20:52.851Z,0.63
2018-12-08T21:23:19.170Z,0.63
2018-12-08T21:25:45.472Z,0.60
2018-12-08T21:28:12.772Z,0.70
2018-12-08T21:30:39.168Z,0.60
2018-12-08T21:33:05.540Z,0.80
2018-12-08T21:35:31.787Z,0.80
2018-12-08T21:37:58.074Z,0.83
2018-12-08T21:40:24.488Z,0.63
2018-12-08T21:42:50.740Z,0.70
2018-12-08T21:45:17.819Z,0.87
2018-12-08T21:47:44.062Z,0.80
2018-12-08T21:50:10.316Z,0.80
2018-12-08T21:52:36.585Z,0.60
2018-12-08T21:55:03.594Z,0.60
2018-12-08T21:57:30.669Z,0.90
2018-12-08T21:59:57.698Z,0.70
2018-12-08T22:02:24.793Z,0.60
2018-12-08T22:04:51.084Z,0.57
2018-12-08T22:07:17.379Z,0.50
2018-12-08T22:09:43.646Z,0.50
2018-12-08T22:12:10.692Z,0.60
2018-12-08T22:14:38.638Z,0.63
2018-12-08T22:17:05.263Z,0.53
2018-12-08T22:19:31.523Z,0.40
2018-12-08T22:21:58.553Z,0.50
2018-12-08T22:24:24.877Z,0.47
2018-12-08T22:26:51.149Z,0.40
2018-12-08T22:29:17.477Z,0.60
2018-12-08T22:31:43.857Z,0.50
2018-12-08T22:34:10.873Z,0.40
2018-12-08T22:36:37.163Z,0.50
2018-12-08T22:39:04.205Z,0.30
2018-12-08T22:41:30.744Z,0.40
2018-12-08T22:43:57.740Z,0.50
2018-12-08T22:46:24.000Z,0.40
2018-12-08T22:48:50.508Z,0.50
2018-12-08T22:51:16.785Z,0.53
2018-12-08T22:53:44.476Z,0.40
2018-12-08T22:56:10.730Z,0.40
2018-12-08T22:58:36.989Z,0.30
2018-12-08T23:01:03.280Z,0.47
2018-12-08T23:03:29.548Z,0.43
2018-12-08T23:05:55.818Z,0.60
2018-12-08T23:08:22.075Z,0.53
2018-12-08T23:10:48.348Z,0.50
2018-12-08T23:13:14.633Z,0.40
2018-12-08T23:15:40.926Z,0.50
2018-12-08T23:18:07.338Z,0.50
2018-12-08T23:20:34.348Z,0.50
2018-12-08T23:23:00.599Z,0.50
2018-12-08T23:25:27.607Z,0.53
2018-12-08T23:27:53.969Z,0.60
2018-12-08T23:30:20.357Z,0.60
2018-12-08T23:32:46.645Z,0.60
2018-12-08T23:35:13.013Z,0.40
2018-12-08T23:37:40.115Z,0.40
2018-12-08T23:40:07.177Z,0.40
2018-12-08T23:42:33.660Z,0.67
2018-12-08T23:44:59.933Z,0.40
2018-12-08T23:47:26.917Z,0.50
2018-12-08T23:49:53.210Z,0.57
2018-12-08T23:52:19.506Z,0.40
2018-12-08T23:54:45.738Z,0.50
2018-12-08T23:57:11.998Z,0.60
2018-12-08T23:59:38.977Z,0.67
